Time;durP1;ratioP1;P1;durP2;ratioP2;P2;SDS_P1;SDS_P2;PMS_P1;PMS_P2;Temp;Humidity;BMP_temperature;BMP_pressure;BME280_temperature;BME280_humidity;BME280_pressure;Samples;Min_cycle;Max_cycle;Signal;HPM_P1;HPM_P2
2022/04/05 00:00:25;;;;;;;30.90;19.08;;;;;;;-141.50;100.00;63355.56;5108853;28;20508;-77
2022/04/05 00:02:51;;;;;;;30.70;19.55;;;;;;;-141.50;100.00;63355.56;5090712;28;20112;-75
2022/04/05 00:05:18;;;;;;;31.63;20.05;;;;;;;-141.50;100.00;63355.56;5091235;28;20048;-74
2022/04/05 00:07:45;;;;;;;27.27;18.42;;;;;;;-141.50;100.00;63355.56;5091754;28;20068;-77
2022/04/05 00:10:11;;;;;;;28.98;19.17;;;;;;;-141.50;100.00;63355.56;5096039;28;20131;-75
2022/04/05 00:12:38;;;;;;;25.10;17.02;;;;;;;-141.50;100.00;63355.56;5102536;28;20051;-76
2022/04/05 00:15:09;;;;;;;31.25;20.50;;;;;;;-141.50;100.00;63355.56;5114808;28;20094;-76
2022/04/05 00:17:36;;;;;;;32.97;19.45;;;;;;;-141.50;100.00;63355.56;5131993;28;20073;-76
2022/04/05 00:20:04;;;;;;;28.98;19.27;;;;;;;-141.50;100.00;63355.56;5132681;28;20044;-77
2022/04/05 00:22:31;;;;;;;34.42;20.02;;;;;;;-141.50;100.00;63355.56;5113715;28;20081;-75
2022/04/05 00:24:57;;;;;;;29.60;18.45;;;;;;;-141.50;100.00;63355.56;5093767;28;20134;-77
2022/04/05 00:27:24;;;;;;;31.63;20.25;;;;;;;-141.50;100.00;63355.56;5111849;28;20052;-78
2022/04/05 00:29:50;;;;;;;28.42;19.20;;;;;;;-141.50;100.00;63355.56;5111673;28;20063;-75
2022/04/05 00:32:17;;;;;;;29.85;19.00;;;;;;;-141.50;100.00;63355.56;5110717;28;20051;-75
2022/04/05 00:34:43;;;;;;;31.60;18.85;;;;;;;-141.50;100.00;63355.56;5111247;28;20051;-76
2022/04/05 00:37:10;;;;;;;32.20;20.30;;;;;;;-141.50;100.00;63355.56;5111553;28;20086;-77
2022/04/05 00:39:36;;;;;;;34.25;20.30;;;;;;;-141.50;100.00;63355.56;5111524;28;20051;-77
2022/04/05 00:42:03;;;;;;;28.90;18.27;;;;;;;-141.50;100.00;63355.56;5092631;28;20476;-77
2022/04/05 00:44:30;;;;;;;30.88;18.88;;;;;;;-141.50;100.00;63355.56;5110795;28;20052;-76
2022/04/05 00:47:10;;;;;;;29.77;19.02;;;;;;;-141.50;100.00;63355.56;5110993;28;20100;-79
2022/04/05 00:49:36;;;;;;;29.90;19.50;;;;;;;-141.50;100.00;63355.56;5110708;28;20138;-77
2022/04/05 00:52:03;;;;;;;31.83;19.92;;;;;;;-141.50;100.00;63355.56;5109953;28;20570;-76
2022/04/05 00:54:30;;;;;;;29.20;18.73;;;;;;;-141.50;100.00;63355.56;5111173;28;20047;-77
2022/04/05 00:56:57;;;;;;;31.42;19.80;;;;;;;-141.50;100.00;63355.56;5111289;28;20199;-79
2022/04/05 00:59:30;;;;;;;32.08;20.42;;;;;;;-141.50;100.00;63355.56;5111586;28;20048;-78
2022/04/05 01:01:59;;;;;;;30.67;20.08;;;;;;;-141.50;100.00;63355.56;5110560;28;20468;-75
2022/04/05 01:04:28;;;;;;;30.25;18.70;;;;;;;-141.50;100.00;63355.56;5109797;28;20475;-77
2022/04/05 01:06:55;;;;;;;32.35;19.65;;;;;;;-141.50;100.00;63355.56;5111164;28;20401;-78
2022/04/05 01:09:23;;;;;;;33.40;19.95;;;;;;;-141.50;100.00;63355.56;5110759;28;20090;-75
2022/04/05 01:11:49;;;;;;;29.98;18.45;;;;;;;-141.50;100.00;63355.56;5098882;28;20709;-77
2022/04/05 01:14:16;;;;;;;29.00;19.08;;;;;;;-141.50;100.00;63355.56;5094119;28;20062;-75
2022/04/05 01:16:42;;;;;;;26.67;16.80;;;;;;;-141.50;100.00;63355.56;5111187;28;20048;-75
2022/04/05 01:19:09;;;;;;;30.00;19.17;;;;;;;-141.50;100.00;63355.56;5110903;28;20413;-76
2022/04/05 01:21:36;;;;;;;32.15;20.73;;;;;;;-141.50;100.00;63355.56;5110446;28;20146;-75
2022/04/05 01:24:05;;;;;;;24.58;16.23;;;;;;;-141.50;100.00;63355.56;5112273;28;20062;-75
2022/04/05 01:26:39;;;;;;;29.60;19.17;;;;;;;-141.50;100.00;63355.56;5111883;28;20071;-76
2022/04/05 01:29:06;;;;;;;31.52;19.48;;;;;;;-141.50;100.00;63355.56;5111285;28;20085;-79
2022/04/05 01:31:37;;;;;;;28.30;18.23;;;;;;;-141.50;100.00;63355.56;5109870;28;20071;-77
2022/04/05 01:34:03;;;;;;;26.20;16.95;;;;;;;-141.50;100.00;63355.56;5110518;28;20047;-76
2022/04/05 01:36:30;;;;;;;26.40;17.48;;;;;;;-141.50;100.00;63355.56;5111797;28;20067;-77
2022/04/05 01:38:59;;;;;;;28.40;17.13;;;;;;;-141.50;100.00;63355.56;5111511;28;20047;-76
2022/04/05 01:41:26;;;;;;;25.80;17.13;;;;;;;-141.50;100.00;63355.56;5110185;28;20048;-76
2022/04/05 01:43:53;;;;;;;27.58;18.38;;;;;;;-141.50;100.00;63355.56;5110925;28;20422;-76
2022/04/05 01:46:20;;;;;;;28.85;18.55;;;;;;;-141.50;100.00;63355.56;5092234;28;20055;-76
2022/04/05 01:48:46;;;;;;;30.38;18.27;;;;;;;-141.50;100.00;63355.56;5109925;28;20051;-76
2022/04/05 01:51:13;;;;;;;26.38;17.00;;;;;;;-141.50;100.00;63355.56;5109669;28;20415;-77
2022/04/05 01:53:39;;;;;;;26.92;17.20;;;;;;;-141.50;100.00;63355.56;5110204;28;20079;-76
2022/04/05 01:56:06;;;;;;;26.98;17.13;;;;;;;-141.50;100.00;63355.56;5110425;28;20093;-77
2022/04/05 01:58:35;;;;;;;25.92;16.95;;;;;;;-141.50;100.00;63355.56;5112301;28;20055;-77
2022/04/05 02:01:03;;;;;;;27.77;17.65;;;;;;;-141.50;100.00;63355.56;5113385;28;20401;-79
2022/04/05 02:03:30;;;;;;;26.98;17.50;;;;;;;-141.50;100.00;63355.56;5112166;28;20052;-78
2022/04/05 02:05:59;;;;;;;27.02;16.23;;;;;;;-141.50;100.00;63355.56;5110681;28;20048;-78
2022/04/05 02:08:26;;;;;;;26.55;17.25;;;;;;;-141.50;100.00;63355.56;5090744;28;20077;-77
2022/04/05 02:10:52;;;;;;;27.20;16.08;;;;;;;-141.50;100.00;63355.56;5076494;28;20044;-76
2022/04/05 02:13:21;;;;;;;25.35;16.52;;;;;;;-141.50;100.00;63355.56;5085985;28;20200;-78
2022/04/05 02:15:49;;;;;;;25.40;16.25;;;;;;;-141.50;100.00;63355.56;5109981;28;20048;-76
2022/04/05 02:18:15;;;;;;;28.27;16.85;;;;;;;-141.50;100.00;63355.56;5110974;28;20055;-78
2022/04/05 02:20:42;;;;;;;27.83;16.02;;;;;;;-141.50;100.00;63355.56;5109087;28;20047;-78
2022/04/05 02:23:09;;;;;;;25.33;16.55;;;;;;;-141.50;100.00;63355.56;5109582;28;20058;-76
2022/04/05 02:25:35;;;;;;;26.35;16.23;;;;;;;-141.50;100.00;63355.56;5109537;28;20051;-78
2022/04/05 02:28:02;;;;;;;24.02;15.43;;;;;;;-141.50;100.00;63355.56;5109368;28;20089;-75
2022/04/05 02:30:29;;;;;;;26.98;16.50;;;;;;;-141.50;100.00;63355.56;5109225;28;20530;-76
2022/04/05 02:32:58;;;;;;;23.88;15.73;;;;;;;-141.50;100.00;63355.56;5108593;28;20079;-77
2022/04/05 02:35:25;;;;;;;28.15;16.77;;;;;;;-141.50;100.00;63355.56;5109022;28;20055;-77
2022/04/05 02:37:51;;;;;;;24.60;15.93;;;;;;;-141.50;100.00;63355.56;5110337;28;20104;-76
2022/04/05 02:40:18;;;;;;;25.33;15.38;;;;;;;-141.50;100.00;63355.56;5108894;28;20052;-76
2022/04/05 02:42:44;;;;;;;25.70;15.38;;;;;;;-141.50;100.00;63355.56;5109175;28;20138;-77
2022/04/05 02:45:11;;;;;;;25.27;15.18;;;;;;;-141.50;100.00;63355.56;5108442;28;20139;-77
2022/04/05 02:47:38;;;;;;;24.27;15.50;;;;;;;-141.50;100.00;63355.56;5108920;28;20087;-77
2022/04/05 02:50:07;;;;;;;24.13;15.45;;;;;;;-141.50;100.00;63355.56;5108707;28;20400;-78
2022/04/05 02:52:34;;;;;;;24.35;14.60;;;;;;;-141.50;100.00;63355.56;5108591;28;20456;-76
2022/04/05 02:55:01;;;;;;;23.50;14.50;;;;;;;-141.50;100.00;63355.56;5109689;28;20092;-77
2022/04/05 02:57:27;;;;;;;23.50;14.13;;;;;;;-141.50;100.00;63355.56;5108974;28;20534;-78
2022/04/05 02:59:54;;;;;;;24.83;14.93;;;;;;;-141.50;100.00;63355.56;5109307;28;20048;-76
2022/04/05 03:02:21;;;;;;;22.00;13.88;;;;;;;-141.50;100.00;63355.56;5108572;28;20043;-76
2022/04/05 03:04:48;;;;;;;24.98;14.68;;;;;;;-141.50;100.00;63355.56;5109436;28;20063;-75
2022/04/05 03:07:15;;;;;;;21.02;13.55;;;;;;;-141.50;100.00;63355.56;5110362;28;20066;-76
2022/04/05 03:09:41;;;;;;;20.83;13.18;;;;;;;-141.50;100.00;63355.56;5077212;28;20107;-76
2022/04/05 03:12:11;;;;;;;20.70;13.60;;;;;;;-141.50;100.00;63355.56;5091797;28;20079;-75
2022/04/05 03:14:39;;;;;;;20.60;13.15;;;;;;;-141.50;100.00;63355.56;5095973;28;20131;-74
2022/04/05 03:17:05;;;;;;;21.55;13.55;;;;;;;-141.50;100.00;63355.56;5088254;28;20148;-76
2022/04/05 03:19:35;;;;;;;20.05;12.70;;;;;;;-141.50;100.00;63355.56;5075555;28;20056;-78
2022/04/05 03:22:02;;;;;;;21.95;12.98;;;;;;;-141.50;100.00;63355.56;5087512;28;20093;-77
2022/04/05 03:24:29;;;;;;;21.75;12.70;;;;;;;-141.50;100.00;63355.56;5089125;28;20048;-78
2022/04/05 03:26:55;;;;;;;19.63;12.82;;;;;;;-141.50;100.00;63355.56;5088489;28;20047;-78
2022/04/05 03:29:23;;;;;;;21.42;13.13;;;;;;;-141.50;100.00;63355.56;5089166;28;20050;-75
2022/04/05 03:31:50;;;;;;;20.70;12.23;;;;;;;-141.50;100.00;63355.56;5085033;28;20094;-76
2022/04/05 03:34:16;;;;;;;19.33;11.85;;;;;;;-141.50;100.00;63355.56;5088899;28;20048;-76
2022/04/05 03:36:46;;;;;;;20.02;12.68;;;;;;;-141.50;100.00;63355.56;5090395;28;20101;-76
2022/04/05 03:39:13;;;;;;;20.70;12.80;;;;;;;-141.50;100.00;63355.56;5092839;28;20064;-76
2022/04/05 03:41:41;;;;;;;18.10;11.75;;;;;;;-141.50;100.00;63355.56;5092238;28;20056;-76
2022/04/05 03:44:10;;;;;;;18.23;12.48;;;;;;;-141.50;100.00;63355.56;5092660;28;20139;-75
2022/04/05 03:46:36;;;;;;;19.85;12.85;;;;;;;-141.50;100.00;63355.56;5089761;28;20278;-76
2022/04/05 03:49:04;;;;;;;21.17;13.45;;;;;;;-141.50;100.00;63355.56;5091473;28;20082;-75
2022/04/05 03:51:30;;;;;;;21.50;12.65;;;;;;;-141.50;100.00;63355.56;5089606;28;20444;-77
2022/04/05 03:53:58;;;;;;;20.10;12.30;;;;;;;-141.50;100.00;63355.56;5090321;28;20769;-75
2022/04/05 03:56:25;;;;;;;19.65;11.73;;;;;;;-141.50;100.00;63355.56;5090275;28;20079;-76
2022/04/05 03:58:51;;;;;;;21.15;12.40;;;;;;;-141.50;100.00;63355.56;5091331;28;20614;-76
2022/04/05 04:01:18;;;;;;;17.80;11.15;;;;;;;-141.50;100.00;63355.56;5088101;28;20072;-77
2022/04/05 04:03:44;;;;;;;16.40;10.93;;;;;;;-141.50;100.00;63355.56;5090477;28;20123;-76
2022/04/05 04:06:11;;;;;;;18.30;11.25;;;;;;;-141.50;100.00;63355.56;5089468;28;20076;-76
2022/04/05 04:08:37;;;;;;;19.42;11.57;;;;;;;-141.50;100.00;63355.56;5089588;28;20052;-76
2022/04/05 04:11:04;;;;;;;15.75;10.23;;;;;;;-141.50;100.00;63355.56;5096712;28;20472;-77
2022/04/05 04:13:30;;;;;;;17.17;11.20;;;;;;;-141.50;100.00;63355.56;5106030;28;20047;-76
2022/04/05 04:15:57;;;;;;;15.35;10.68;;;;;;;-141.50;100.00;63355.56;5110243;28;20055;-76
2022/04/05 04:18:24;;;;;;;16.92;10.43;;;;;;;-141.50;100.00;63355.56;5110189;28;20047;-75
2022/04/05 04:20:50;;;;;;;14.65;9.50;;;;;;;-141.50;100.00;63355.56;5112675;28;20506;-75
2022/04/05 04:23:17;;;;;;;15.52;10.00;;;;;;;-141.50;100.00;63355.56;5091583;28;20051;-78
2022/04/05 04:25:45;;;;;;;14.98;9.90;;;;;;;-141.50;100.00;63355.56;5093189;28;20557;-76
2022/04/05 04:28:12;;;;;;;14.55;9.93;;;;;;;-141.50;100.00;63355.56;5093192;28;20111;-76
2022/04/05 04:30:39;;;;;;;13.13;9.13;;;;;;;-141.50;100.00;63355.56;5073178;28;20080;-77
2022/04/05 04:33:06;;;;;;;13.63;9.15;;;;;;;-141.50;100.00;63355.56;5092408;28;20044;-77
2022/04/05 04:35:38;;;;;;;11.93;8.48;;;;;;;-141.50;100.00;63355.56;5091695;28;20133;-76
2022/04/05 04:38:07;;;;;;;10.80;7.13;;;;;;;-141.50;100.00;63355.56;5091503;28;20051;-77
2022/04/05 04:40:34;;;;;;;11.75;7.45;;;;;;;-141.50;100.00;63355.56;5089984;28;20047;-77
2022/04/05 04:43:01;;;;;;;10.85;7.55;;;;;;;-141.50;100.00;63355.56;5090443;28;20075;-77
2022/04/05 04:45:30;;;;;;;10.73;7.38;;;;;;;-141.50;100.00;63355.56;5090445;28;20078;-75
2022/04/05 04:47:57;;;;;;;11.30;7.63;;;;;;;-141.50;100.00;63355.56;5089907;28;20048;-74
2022/04/05 04:50:24;;;;;;;10.52;7.00;;;;;;;-141.50;100.00;63355.56;5090319;28;20508;-76
2022/04/05 04:52:51;;;;;;;10.02;6.90;;;;;;;-141.50;100.00;63355.56;5090131;28;20468;-76
2022/04/05 04:55:17;;;;;;;10.50;7.20;;;;;;;-141.50;100.00;63355.56;5091328;28;20345;-76
2022/04/05 04:57:44;;;;;;;10.00;6.97;;;;;;;-141.50;100.00;63355.56;5091076;28;20343;-77
2022/04/05 05:00:11;;;;;;;8.95;6.68;;;;;;;-141.50;100.00;63355.56;5089991;28;20056;-78
2022/04/05 05:02:48;;;;;;;9.02;6.65;;;;;;;-141.50;100.00;63355.56;5088578;28;20111;-77
2022/04/05 05:05:18;;;;;;;8.95;6.07;;;;;;;-141.50;100.00;63355.56;5090034;28;20072;-77
2022/04/05 05:07:47;;;;;;;8.75;6.10;;;;;;;-141.50;100.00;63355.56;5090336;28;20048;-76
2022/04/05 05:10:18;;;;;;;8.27;6.22;;;;;;;-141.50;100.00;63355.56;5094548;28;20043;-76
2022/04/05 05:12:45;;;;;;;7.85;5.93;;;;;;;-141.50;100.00;63355.56;5101538;28;20071;-76
2022/04/05 05:15:17;;;;;;;8.43;6.13;;;;;;;-141.50;100.00;63355.56;5109703;28;20104;-76
2022/04/05 05:17:46;;;;;;;10.38;6.53;;;;;;;-141.50;100.00;63355.56;5110376;28;20055;-75
2022/04/05 05:20:14;;;;;;;8.23;6.00;;;;;;;-141.50;100.00;63355.56;5110065;28;20086;-76
2022/04/05 05:22:42;;;;;;;10.00;6.47;;;;;;;-141.50;100.00;63355.56;5109361;28;20076;-76
2022/04/05 05:25:09;;;;;;;7.93;5.95;;;;;;;-141.50;100.00;63355.56;5110432;28;20047;-77
2022/04/05 05:27:37;;;;;;;9.23;6.50;;;;;;;-141.50;100.00;63355.56;5109333;28;20489;-75
2022/04/05 05:30:07;;;;;;;8.18;6.13;;;;;;;-141.50;100.00;63355.56;5109439;28;20051;-78
2022/04/05 05:32:50;;;;;;;7.88;5.75;;;;;;;-141.50;100.00;63355.56;5108099;28;20071;-78
2022/04/05 05:35:18;;;;;;;9.18;5.50;;;;;;;-141.50;100.00;63355.56;5091998;28;20418;-76
2022/04/05 05:37:46;;;;;;;8.55;6.22;;;;;;;-141.50;100.00;63355.56;5091620;28;20082;-76
2022/04/05 05:40:13;;;;;;;7.75;5.78;;;;;;;-141.50;100.00;63355.56;5110072;28;20462;-76
2022/04/05 05:42:52;;;;;;;8.23;5.60;;;;;;;-141.50;100.00;63355.56;5109615;28;20040;-75
2022/04/05 05:45:20;;;;;;;9.52;5.88;;;;;;;-141.50;100.00;63355.56;5109859;28;20047;-76
2022/04/05 05:47:47;;;;;;;8.43;5.95;;;;;;;-141.50;100.00;63355.56;5110561;28;20572;-76
2022/04/05 05:50:14;;;;;;;8.05;5.78;;;;;;;-141.50;100.00;63355.56;5111685;28;20075;-77
2022/04/05 05:52:41;;;;;;;7.45;5.57;;;;;;;-141.50;100.00;63355.56;5111430;28;20411;-77
2022/04/05 05:55:10;;;;;;;8.98;6.25;;;;;;;-141.50;100.00;63355.56;5092418;28;20124;-78
2022/04/05 05:57:37;;;;;;;8.93;6.22;;;;;;;-141.50;100.00;63355.56;5109599;28;20135;-76
2022/04/05 06:00:06;;;;;;;7.70;5.63;;;;;;;-141.50;100.00;63355.56;5109311;28;20094;-76
2022/04/05 06:02:36;;;;;;;8.70;6.18;;;;;;;-141.50;100.00;63355.56;5108447;28;20203;-75
2022/04/05 06:05:04;;;;;;;8.05;5.40;;;;;;;-141.50;100.00;63355.56;5109990;28;20146;-75
2022/04/05 06:07:30;;;;;;;8.93;5.40;;;;;;;-141.50;100.00;63355.56;5109459;28;20044;-75
2022/04/05 06:09:57;;;;;;;7.15;5.32;;;;;;;-141.50;100.00;63355.56;5106699;28;20087;-77
2022/04/05 06:12:23;;;;;;;7.70;4.75;;;;;;;-141.50;100.00;63355.56;5100307;28;20289;-76
2022/04/05 06:14:50;;;;;;;7.13;5.10;;;;;;;-141.50;100.00;63355.56;5108456;28;20052;-77
2022/04/05 06:17:17;;;;;;;7.97;5.60;;;;;;;-141.50;100.00;63355.56;5109851;28;20238;-76
2022/04/05 06:19:45;;;;;;;6.00;4.10;;;;;;;-141.50;100.00;63355.56;5109362;28;20285;-76
2022/04/05 06:22:12;;;;;;;7.72;4.82;;;;;;;-141.50;100.00;63355.56;5106344;28;20481;-77
2022/04/05 06:24:39;;;;;;;6.72;4.40;;;;;;;-141.50;100.00;63355.56;5091099;28;20117;-78
2022/04/05 06:27:05;;;;;;;7.40;5.18;;;;;;;-141.50;100.00;63355.56;5091099;28;20491;-78
2022/04/05 06:29:33;;;;;;;7.60;4.63;;;;;;;-141.50;100.00;63355.56;5109450;28;20563;-75
2022/04/05 06:32:00;;;;;;;8.30;5.07;;;;;;;-141.50;100.00;63355.56;5109566;28;20112;-76
2022/04/05 06:34:26;;;;;;;7.78;5.18;;;;;;;-141.50;100.00;63355.56;5109667;28;20101;-77
2022/04/05 06:36:53;;;;;;;7.80;5.35;;;;;;;-141.50;100.00;63355.56;5109133;28;20087;-76
2022/04/05 06:39:20;;;;;;;6.50;4.90;;;;;;;-141.50;100.00;63355.56;5091548;28;20079;-78
2022/04/05 06:41:46;;;;;;;7.07;5.05;;;;;;;-141.50;100.00;63355.56;5107678;28;20131;-79
2022/04/05 06:44:13;;;;;;;7.47;5.25;;;;;;;-141.50;100.00;63355.56;5109856;28;20078;-76
2022/04/05 06:46:39;;;;;;;8.20;4.95;;;;;;;-141.50;100.00;63355.56;5108950;28;20093;-76
2022/04/05 06:49:06;;;;;;;6.95;5.15;;;;;;;-141.50;100.00;63355.56;5108651;28;20098;-77
2022/04/05 06:51:32;;;;;;;7.90;4.57;;;;;;;-141.50;100.00;63355.56;5108596;28;20047;-77
2022/04/05 06:53:59;;;;;;;9.02;5.43;;;;;;;-141.50;100.00;63355.56;5109783;28;20134;-79
2022/04/05 06:56:26;;;;;;;6.90;4.55;;;;;;;-141.50;100.00;63355.56;5111032;28;20075;-75
2022/04/05 06:58:53;;;;;;;10.52;4.60;;;;;;;-141.50;100.00;63355.56;5115197;28;20052;-76
2022/04/05 07:01:19;;;;;;;8.57;4.30;;;;;;;-141.50;100.00;63355.56;5113573;28;20462;-74
2022/04/05 07:03:46;;;;;;;7.72;5.05;;;;;;;-141.50;100.00;63355.56;5109378;28;20113;-76
2022/04/05 07:06:12;;;;;;;7.47;4.97;;;;;;;-141.50;100.00;63355.56;5109447;28;20408;-75
2022/04/05 07:08:39;;;;;;;9.20;5.72;;;;;;;-141.50;100.00;63355.56;5091354;28;20052;-76
2022/04/05 07:11:07;;;;;;;9.55;6.03;;;;;;;-141.50;100.00;63355.56;5101771;28;20052;-75
2022/04/05 07:13:33;;;;;;;8.45;5.60;;;;;;;-141.50;100.00;63355.56;5104988;28;20486;-77
2022/04/05 07:16:00;;;;;;;9.55;5.63;;;;;;;-141.50;100.00;63355.56;5108597;28;20131;-75
2022/04/05 07:18:26;;;;;;;8.15;4.88;;;;;;;-141.50;100.00;63355.56;5108627;28;20052;-76
2022/04/05 07:20:53;;;;;;;7.38;4.75;;;;;;;-141.50;100.00;63355.56;5108077;28;20488;-75
2022/04/05 07:23:20;;;;;;;7.65;4.85;;;;;;;-141.50;100.00;63355.56;5108870;28;20131;-77
2022/04/05 07:25:47;;;;;;;5.82;4.18;;;;;;;-141.50;100.00;63355.56;5109053;28;20420;-77
2022/04/05 07:28:13;;;;;;;6.53;4.38;;;;;;;-141.50;100.00;63355.56;5109349;28;20047;-76
2022/04/05 07:30:40;;;;;;;6.68;4.15;;;;;;;-141.50;100.00;63355.56;5090740;28;20051;-77
2022/04/05 07:33:07;;;;;;;6.43;4.22;;;;;;;-141.50;100.00;63355.56;5110083;28;20545;-76
2022/04/05 07:35:34;;;;;;;5.47;4.10;;;;;;;-141.50;100.00;63355.56;5092488;28;20055;-78
2022/04/05 07:38:00;;;;;;;9.80;3.72;;;;;;;-141.50;100.00;63355.56;5111678;28;20262;-79
2022/04/05 07:40:47;;;;;;;7.35;3.97;;;;;;;-141.50;100.00;63355.56;5109772;28;20432;-77
2022/04/05 07:43:15;;;;;;;5.80;3.80;;;;;;;-141.50;100.00;63355.56;5109392;28;20051;-76
2022/04/05 07:45:42;;;;;;;5.72;4.03;;;;;;;-141.50;100.00;63355.56;5108867;28;20082;-74
2022/04/05 07:48:08;;;;;;;4.72;3.60;;;;;;;-141.50;100.00;63355.56;5109496;28;20526;-76
2022/04/05 07:50:35;;;;;;;5.68;4.10;;;;;;;-141.50;100.00;63355.56;5109209;28;20541;-75
2022/04/05 07:53:02;;;;;;;6.03;4.13;;;;;;;-141.50;100.00;63355.56;5109241;28;20044;-77
2022/04/05 07:55:28;;;;;;;6.63;3.88;;;;;;;-141.50;100.00;63355.56;5112013;28;20105;-77
2022/04/05 07:57:55;;;;;;;4.28;3.30;;;;;;;-141.50;100.00;63355.56;5113176;28;20051;-78
2022/04/05 08:00:23;;;;;;;6.18;3.80;;;;;;;-141.50;100.00;63355.56;5112898;28;20066;-75
2022/04/05 08:02:53;;;;;;;4.72;3.28;;;;;;;-141.50;100.00;63355.56;5112345;28;20131;-75
2022/04/05 08:05:19;;;;;;;4.35;3.28;;;;;;;-141.50;100.00;63355.56;5112677;28;20055;-76
2022/04/05 08:07:46;;;;;;;5.57;3.75;;;;;;;-141.50;100.00;63355.56;5113375;28;20087;-76
2022/04/05 08:10:13;;;;;;;4.95;3.70;;;;;;;-141.50;100.00;63355.56;5111416;28;20085;-80
2022/04/05 08:12:43;;;;;;;6.53;3.83;;;;;;;-141.50;100.00;63355.56;5103303;28;20422;-74
2022/04/05 08:15:12;;;;;;;5.00;3.35;;;;;;;-141.50;100.00;63355.56;5111848;28;20109;-76
2022/04/05 08:17:39;;;;;;;4.75;3.30;;;;;;;-141.50;100.00;63355.56;5112717;28;20044;-76
2022/04/05 08:20:06;;;;;;;5.07;3.60;;;;;;;-141.50;100.00;63355.56;5110121;28;20043;-77
2022/04/05 08:22:33;;;;;;;5.20;3.85;;;;;;;-141.50;100.00;63355.56;5111944;28;20102;-76
2022/04/05 08:25:00;;;;;;;5.28;3.70;;;;;;;-141.50;100.00;63355.56;5113185;28;20079;-77
2022/04/05 08:27:26;;;;;;;4.53;3.30;;;;;;;-141.50;100.00;63355.56;5112895;28;20104;-76
2022/04/05 08:29:53;;;;;;;4.65;3.20;;;;;;;-141.50;100.00;63355.56;5100331;28;20101;-78
2022/04/05 08:32:19;;;;;;;5.43;3.30;;;;;;;-141.50;100.00;63355.56;5118441;28;20040;-76
2022/04/05 08:34:46;;;;;;;5.65;3.30;;;;;;;-141.50;100.00;63355.56;5120281;28;20073;-77
2022/04/05 08:37:13;;;;;;;4.07;3.13;;;;;;;-141.50;100.00;63355.56;5118402;28;20142;-77
2022/04/05 08:39:40;;;;;;;4.15;2.92;;;;;;;-141.50;100.00;63355.56;5102701;28;20047;-77
2022/04/05 08:42:06;;;;;;;4.75;3.30;;;;;;;-141.50;100.00;63355.56;5119369;28;20055;-80
2022/04/05 08:44:34;;;;;;;5.30;3.08;;;;;;;-141.50;100.00;63355.56;5118371;28;20052;-77
2022/04/05 08:47:02;;;;;;;4.80;3.28;;;;;;;-141.50;100.00;63355.56;5120312;28;20054;-79
2022/04/05 08:49:30;;;;;;;5.60;3.42;;;;;;;-141.50;100.00;63355.56;5103085;28;20218;-78
2022/04/05 08:51:57;;;;;;;4.40;3.10;;;;;;;-141.50;100.00;63355.56;5119861;28;20055;-77
2022/04/05 08:54:23;;;;;;;6.10;3.42;;;;;;;-141.50;100.00;63355.56;5119551;28;20093;-78
2022/04/05 08:56:50;;;;;;;6.65;3.25;;;;;;;-141.50;100.00;63355.56;5120032;28;20052;-78
2022/04/05 08:59:16;;;;;;;3.90;2.55;;;;;;;-141.50;100.00;63355.56;5120710;28;20051;-79
2022/04/05 09:01:43;;;;;;;3.75;2.90;;;;;;;-141.50;100.00;63355.56;5116858;28;20047;-78
2022/04/05 09:04:10;;;;;;;4.57;2.70;;;;;;;-141.50;100.00;63355.56;5118417;28;20135;-78
2022/04/05 09:06:37;;;;;;;3.47;2.40;;;;;;;-141.50;100.00;63355.56;5120885;28;20531;-77
2022/04/05 09:09:10;;;;;;;5.88;3.20;;;;;;;-141.50;100.00;63355.56;5120841;28;20051;-78
2022/04/05 09:11:49;;;;;;;8.55;3.15;;;;;;;-141.50;100.00;63355.56;5107581;28;20056;-79
2022/04/05 09:14:41;;;;;;;5.18;2.70;;;;;;;-141.50;100.00;63355.56;5075843;28;20048;-79
2022/04/05 09:17:10;;;;;;;3.72;2.60;;;;;;;-141.50;100.00;63355.56;5063480;28;20416;-78
2022/04/05 09:19:46;;;;;;;4.25;2.40;;;;;;;-141.50;100.00;63355.56;5079796;28;20053;-79
2022/04/05 09:22:13;;;;;;;2.78;1.92;;;;;;;-141.50;100.00;63355.56;5059732;28;20053;-80
2022/04/05 09:24:45;;;;;;;6.15;2.20;;;;;;;-141.50;100.00;63355.56;5076640;28;20102;-78
2022/04/05 09:27:12;;;;;;;4.65;2.38;;;;;;;-141.50;100.00;63355.56;5073814;28;20497;-78
2022/04/05 09:29:45;;;;;;;2.90;1.70;;;;;;;-141.50;100.00;63355.56;5074867;28;20052;-78
2022/04/05 09:32:31;;;;;;;3.80;1.88;;;;;;;-141.50;100.00;63355.56;5078207;28;20052;-78
2022/04/05 09:34:57;;;;;;;6.32;1.67;;;;;;;-141.50;100.00;63355.56;5075845;28;20053;-77
2022/04/05 09:37:26;;;;;;;2.83;1.58;;;;;;;-141.50;100.00;63355.56;5075338;28;20105;-78
2022/04/05 09:39:55;;;;;;;3.20;1.83;;;;;;;-141.50;100.00;63355.56;5055862;28;20106;-79
2022/04/05 09:42:21;;;;;;;2.25;1.58;;;;;;;-141.50;100.00;63355.56;5056938;28;20044;-78
2022/04/05 09:44:48;;;;;;;2.38;1.63;;;;;;;-141.50;100.00;63355.56;5060877;28;20076;-79
2022/04/05 09:47:17;;;;;;;2.75;2.00;;;;;;;-141.50;100.00;63355.56;5073059;28;20045;-78
2022/04/05 09:49:46;;;;;;;3.25;2.00;;;;;;;-141.50;100.00;63355.56;5071294;28;20044;-78
2022/04/05 09:52:30;;;;;;;2.22;1.52;;;;;;;-141.50;100.00;63355.56;5074832;28;20448;-79
2022/04/05 09:55:15;;;;;;;2.65;1.60;;;;;;;-141.50;100.00;63355.56;5073426;28;20323;-78
2022/04/05 09:57:43;;;;;;;3.03;1.50;;;;;;;-141.50;100.00;63355.56;5074766;28;20474;-78
2022/04/05 10:00:15;;;;;;;3.22;1.70;;;;;;;-141.50;100.00;63355.56;5056091;28;20101;-79
2022/04/05 10:03:11;;;;;;;3.65;1.65;;;;;;;-141.50;100.00;63355.56;5070288;28;20098;-79
2022/04/05 10:05:39;;;;;;;5.10;1.50;;;;;;;-141.50;100.00;63355.56;5059476;28;20055;-79
2022/04/05 10:08:06;;;;;;;1.90;1.60;;;;;;;-141.50;100.00;63355.56;5072307;28;20058;-78
2022/04/05 10:10:33;;;;;;;2.78;1.80;;;;;;;-141.50;100.00;63355.56;5087691;28;20078;-77
2022/04/05 10:13:00;;;;;;;3.42;2.25;;;;;;;-141.50;100.00;63355.56;5105908;28;20107;-79
2022/04/05 10:15:28;;;;;;;1.90;1.70;;;;;;;-141.50;100.00;63355.56;5112379;28;20043;-79
2022/04/05 10:17:57;;;;;;;3.42;2.15;;;;;;;-141.50;100.00;63355.56;5114095;28;20108;-79
2022/04/05 10:20:25;;;;;;;2.83;1.90;;;;;;;-141.50;100.00;63355.56;5117921;28;20115;-78
2022/04/05 10:22:58;;;;;;;3.30;2.10;;;;;;;-141.50;100.00;63355.56;5118590;28;20044;-79
2022/04/05 10:25:25;;;;;;;4.53;2.55;;;;;;;-141.50;100.00;63355.56;5112233;28;20073;-80
2022/04/05 10:27:52;;;;;;;4.63;2.78;;;;;;;-141.50;100.00;63355.56;5111575;28;20044;-78
2022/04/05 10:30:37;;;;;;;3.53;2.45;;;;;;;-141.50;100.00;63355.56;5110586;28;20096;-79
2022/04/05 10:33:37;;;;;;;3.25;2.20;;;;;;;-141.50;100.00;63355.56;5110922;28;20048;-77
2022/04/05 10:36:04;;;;;;;3.75;2.17;;;;;;;-141.50;100.00;63355.56;5110744;28;20047;-78
2022/04/05 10:38:31;;;;;;;2.65;1.90;;;;;;;-141.50;100.00;63355.56;5110925;28;20055;-78
2022/04/05 10:41:14;;;;;;;4.25;1.63;;;;;;;-141.50;100.00;63355.56;5114038;28;20087;-81
2022/04/05 10:43:42;;;;;;;2.30;1.50;;;;;;;-141.50;100.00;63355.56;5118456;28;20108;-77
2022/04/05 10:46:09;;;;;;;3.13;1.70;;;;;;;-141.50;100.00;63355.56;5114019;28;20051;-78
2022/04/05 10:48:37;;;;;;;2.10;1.42;;;;;;;-141.50;100.00;63355.56;5097411;28;20063;-79
2022/04/05 10:51:05;;;;;;;2.67;1.40;;;;;;;-141.50;100.00;63355.56;5117859;28;20078;-76
2022/04/05 10:54:17;;;;;;;1.40;1.10;;;;;;;-141.50;100.00;63355.56;5119248;28;20070;-78
2022/04/05 10:56:31;;;;;;;2.22;1.20;;;;;;;-141.50;100.00;63355.56;5120276;28;20104;-79
2022/04/05 10:59:05;;;;;;;2.58;1.08;;;;;;;-141.50;100.00;63355.56;5121686;28;20051;-77
2022/04/05 11:01:43;;;;;;;1.60;1.00;;;;;;;-141.50;100.00;63355.56;5121597;28;20511;-79
2022/04/05 11:04:17;;;;;;;1.30;0.93;;;;;;;-141.50;100.00;63355.56;5121803;28;20040;-78
2022/04/05 11:07:02;;;;;;;2.08;1.00;;;;;;;-141.50;100.00;63355.56;5120183;28;20047;-80